sensor_id;sensor_type;location;lat;lon;timestamp;pressure;altitude;pressure_sealevel;temperature;humidity
68329;BME280;55182;56.864;60.554;2023-05-12T00:01:31;75783.16;;;-143.60;76.48
68329;BME280;55182;56.864;60.554;2023-05-12T00:03:56;75793.19;;;-143.60;76.48
68329;BME280;55182;56.864;60.554;2023-05-12T00:06:22;75797.22;;;-143.60;76.39
68329;BME280;55182;56.864;60.554;2023-05-12T00:08:47;75811.28;;;-143.60;76.10
68329;BME280;55182;56.864;60.554;2023-05-12T00:11:13;75813.28;;;-143.60;75.34
68329;BME280;55182;56.864;60.554;2023-05-12T00:13:38;75811.28;;;-143.60;75.12
68329;BME280;55182;56.864;60.554;2023-05-12T00:16:04;75805.25;;;-143.60;74.83
68329;BME280;55182;56.864;60.554;2023-05-12T00:18:29;75807.25;;;-143.60;74.90
68329;BME280;55182;56.864;60.554;2023-05-12T00:20:55;75823.34;;;-143.60;75.42
68329;BME280;55182;56.864;60.554;2023-05-12T00:23:20;75833.38;;;-143.60;75.52
68329;BME280;55182;56.864;60.554;2023-05-12T00:25:46;75825.34;;;-143.60;75.53
68329;BME280;55182;56.864;60.554;2023-05-12T00:28:12;75827.34;;;-143.60;75.24
68329;BME280;55182;56.864;60.554;2023-05-12T00:30:38;75829.34;;;-143.60;75.24
68329;BME280;55182;56.864;60.554;2023-05-12T00:33:04;75829.34;;;-143.60;75.46
68329;BME280;55182;56.864;60.554;2023-05-12T00:35:29;75833.38;;;-143.60;75.47
68329;BME280;55182;56.864;60.554;2023-05-12T00:37:55;75827.34;;;-143.60;75.39
68329;BME280;55182;56.864;60.554;2023-05-12T00:40:20;75809.25;;;-143.60;75.28
68329;BME280;55182;56.864;60.554;2023-05-12T00:42:46;75813.28;;;-143.60;75.10
68329;BME280;55182;56.864;60.554;2023-05-12T00:45:11;75795.19;;;-143.60;74.54
68329;BME280;55182;56.864;60.554;2023-05-12T00:47:37;75785.16;;;-143.60;73.88
68329;BME280;55182;56.864;60.554;2023-05-12T00:50:03;75773.09;;;-143.60;73.52
68329;BME280;55182;56.864;60.554;2023-05-12T00:52:29;75757.03;;;-143.60;72.98
68329;BME280;55182;56.864;60.554;2023-05-12T00:54:55;75738.94;;;-143.60;72.88
68329;BME280;55182;56.864;60.554;2023-05-12T00:57:21;75730.91;;;-143.60;72.67
68329;BME280;55182;56.864;60.554;2023-05-12T00:59:46;75704.78;;;-143.60;72.42
68329;BME280;55182;56.864;60.554;2023-05-12T01:02:12;75686.69;;;-143.60;72.31
68329;BME280;55182;56.864;60.554;2023-05-12T01:04:38;75664.59;;;-143.60;71.16
68329;BME280;55182;56.864;60.554;2023-05-12T01:07:05;75640.50;;;-143.60;70.43
68329;BME280;55182;56.864;60.554;2023-05-12T01:09:33;75614.38;;;-143.60;69.13
68329;BME280;55182;56.864;60.554;2023-05-12T01:11:59;75588.25;;;-143.60;68.80
68329;BME280;55182;56.864;60.554;2023-05-12T01:14:25;75572.19;;;-143.60;68.86
68329;BME280;55182;56.864;60.554;2023-05-12T01:16:52;75560.13;;;-143.60;68.29
68329;BME280;55182;56.864;60.554;2023-05-12T01:19:31;75546.06;;;-143.60;67.59
68329;BME280;55182;56.864;60.554;2023-05-12T01:21:59;75527.97;;;-143.60;66.88
68329;BME280;55182;56.864;60.554;2023-05-12T01:24:26;75527.97;;;-143.60;66.82
68329;BME280;55182;56.864;60.554;2023-05-12T01:26:53;75519.94;;;-143.60;65.92
68329;BME280;55182;56.864;60.554;2023-05-12T01:29:20;75515.91;;;-143.60;65.67
68329;BME280;55182;56.864;60.554;2023-05-12T01:31:46;75511.91;;;-143.60;65.23
68329;BME280;55182;56.864;60.554;2023-05-12T01:34:15;75507.88;;;-143.60;65.20
68329;BME280;55182;56.864;60.554;2023-05-12T01:36:41;75503.88;;;-143.60;65.71
68329;BME280;55182;56.864;60.554;2023-05-12T01:39:07;75497.84;;;-143.60;64.28
68329;BME280;55182;56.864;60.554;2023-05-12T01:41:32;75489.81;;;-143.60;63.84
68329;BME280;55182;56.864;60.554;2023-05-12T01:43:58;75481.75;;;-143.60;63.62
68329;BME280;55182;56.864;60.554;2023-05-12T01:46:24;75483.78;;;-143.60;64.15
68329;BME280;55182;56.864;60.554;2023-05-12T01:48:53;75471.72;;;-143.60;64.49
68329;BME280;55182;56.864;60.554;2023-05-12T01:51:19;75467.69;;;-143.60;63.53
68329;BME280;55182;56.864;60.554;2023-05-12T01:53:44;75465.69;;;-143.60;63.18
68329;BME280;55182;56.864;60.554;2023-05-12T01:56:09;75459.66;;;-143.60;62.86
68329;BME280;55182;56.864;60.554;2023-05-12T01:58:35;75457.66;;;-143.60;62.62
68329;BME280;55182;56.864;60.554;2023-05-12T02:01:01;75455.66;;;-143.60;62.57
68329;BME280;55182;56.864;60.554;2023-05-12T02:03:26;75451.63;;;-143.60;62.39
68329;BME280;55182;56.864;60.554;2023-05-12T02:05:55;75453.63;;;-143.60;62.64
68329;BME280;55182;56.864;60.554;2023-05-12T02:08:21;75447.59;;;-143.60;62.58
68329;BME280;55182;56.864;60.554;2023-05-12T02:10:46;75445.59;;;-143.60;62.54
68329;BME280;55182;56.864;60.554;2023-05-12T02:13:12;75451.63;;;-143.60;62.41
68329;BME280;55182;56.864;60.554;2023-05-12T02:15:37;75457.66;;;-143.60;62.84
68329;BME280;55182;56.864;60.554;2023-05-12T02:18:03;75457.66;;;-143.60;62.77
68329;BME280;55182;56.864;60.554;2023-05-12T02:20:28;75463.69;;;-143.60;63.06
68329;BME280;55182;56.864;60.554;2023-05-12T02:22:54;75463.69;;;-143.60;63.50
68329;BME280;55182;56.864;60.554;2023-05-12T02:25:19;75463.69;;;-143.60;63.19
68329;BME280;55182;56.864;60.554;2023-05-12T02:27:45;75461.66;;;-143.60;63.27
68329;BME280;55182;56.864;60.554;2023-05-12T02:30:11;75461.66;;;-143.60;63.35
68329;BME280;55182;56.864;60.554;2023-05-12T02:32:36;75455.66;;;-143.60;63.35
68329;BME280;55182;56.864;60.554;2023-05-12T02:35:04;75451.63;;;-143.60;63.09
68329;BME280;55182;56.864;60.554;2023-05-12T02:37:30;75437.56;;;-143.60;62.62
68329;BME280;55182;56.864;60.554;2023-05-12T02:39:56;75439.56;;;-143.60;62.47
68329;BME280;55182;56.864;60.554;2023-05-12T02:42:22;75433.53;;;-143.60;62.40
68329;BME280;55182;56.864;60.554;2023-05-12T02:44:48;75435.56;;;-143.60;62.14
68329;BME280;55182;56.864;60.554;2023-05-12T02:47:13;75427.50;;;-143.60;62.12
68329;BME280;55182;56.864;60.554;2023-05-12T02:49:39;75415.47;;;-143.60;61.72
68329;BME280;55182;56.864;60.554;2023-05-12T02:52:04;75401.41;;;-143.60;61.37
68329;BME280;55182;56.864;60.554;2023-05-12T02:54:30;75395.38;;;-143.60;60.66
68329;BME280;55182;56.864;60.554;2023-05-12T02:56:55;75383.31;;;-143.60;60.73
68329;BME280;55182;56.864;60.554;2023-05-12T02:59:21;75375.28;;;-143.60;60.28
68329;BME280;55182;56.864;60.554;2023-05-12T03:01:46;75377.28;;;-143.60;60.36
68329;BME280;55182;56.864;60.554;2023-05-12T03:04:12;75375.28;;;-143.60;60.11
68329;BME280;55182;56.864;60.554;2023-05-12T03:06:37;75385.31;;;-143.60;59.75
68329;BME280;55182;56.864;60.554;2023-05-12T03:09:03;75383.31;;;-143.60;59.85
68329;BME280;55182;56.864;60.554;2023-05-12T03:11:28;75387.34;;;-143.60;59.77
68329;BME280;55182;56.864;60.554;2023-05-12T03:13:53;75395.38;;;-143.60;59.84
68329;BME280;55182;56.864;60.554;2023-05-12T03:16:19;75395.38;;;-143.60;59.90
68329;BME280;55182;56.864;60.554;2023-05-12T03:18:44;75387.34;;;-143.60;59.74
68329;BME280;55182;56.864;60.554;2023-05-12T03:21:10;75389.34;;;-143.60;59.42
68329;BME280;55182;56.864;60.554;2023-05-12T03:23:35;75383.31;;;-143.60;59.50
68329;BME280;55182;56.864;60.554;2023-05-12T03:26:01;75375.28;;;-143.60;59.11
68329;BME280;55182;56.864;60.554;2023-05-12T03:28:27;75371.25;;;-143.60;58.73
68329;BME280;55182;56.864;60.554;2023-05-12T03:30:53;75367.25;;;-143.60;58.42
68329;BME280;55182;56.864;60.554;2023-05-12T03:33:19;75353.19;;;-143.60;57.95
68329;BME280;55182;56.864;60.554;2023-05-12T03:35:45;75335.09;;;-143.60;56.95
68329;BME280;55182;56.864;60.554;2023-05-12T03:38:11;75304.97;;;-143.60;56.14
68329;BME280;55182;56.864;60.554;2023-05-12T03:40:36;75294.91;;;-143.60;55.55
68329;BME280;55182;56.864;60.554;2023-05-12T03:43:01;75288.88;;;-143.60;55.83
68329;BME280;55182;56.864;60.554;2023-05-12T03:45:27;75282.88;;;-143.60;55.79
68329;BME280;55182;56.864;60.554;2023-05-12T03:47:52;75278.84;;;-143.60;56.26
68329;BME280;55182;56.864;60.554;2023-05-12T03:50:18;75276.84;;;-143.60;55.61
68329;BME280;55182;56.864;60.554;2023-05-12T03:52:44;75270.81;;;-143.60;55.32
68329;BME280;55182;56.864;60.554;2023-05-12T03:55:10;75276.84;;;-143.60;55.63
68329;BME280;55182;56.864;60.554;2023-05-12T03:57:36;75274.81;;;-143.60;55.59
68329;BME280;55182;56.864;60.554;2023-05-12T04:00:02;75258.75;;;-143.60;55.08
68329;BME280;55182;56.864;60.554;2023-05-12T04:02:38;75260.75;;;-143.60;54.64
68329;BME280;55182;56.864;60.554;2023-05-12T04:05:05;75256.75;;;-143.60;53.54
68329;BME280;55182;56.864;60.554;2023-05-12T04:07:30;75246.69;;;-143.60;52.98
68329;BME280;55182;56.864;60.554;2023-05-12T04:09:56;75242.69;;;-143.60;53.07
68329;BME280;55182;56.864;60.554;2023-05-12T04:12:22;75246.69;;;-143.60;52.85
68329;BME280;55182;56.864;60.554;2023-05-12T04:14:48;75244.69;;;-143.60;52.85
68329;BME280;55182;56.864;60.554;2023-05-12T04:17:13;75230.63;;;-143.60;53.20
68329;BME280;55182;56.864;60.554;2023-05-12T04:19:39;75222.59;;;-143.60;52.45
68329;BME280;55182;56.864;60.554;2023-05-12T04:22:05;75202.50;;;-143.60;52.51
68329;BME280;55182;56.864;60.554;2023-05-12T04:24:30;75190.44;;;-143.60;51.65
68329;BME280;55182;56.864;60.554;2023-05-12T04:26:56;75178.41;;;-143.60;51.59
68329;BME280;55182;56.864;60.554;2023-05-12T04:29:22;75162.31;;;-143.60;51.02
68329;BME280;55182;56.864;60.554;2023-05-12T04:31:48;75154.28;;;-143.60;51.35
68329;BME280;55182;56.864;60.554;2023-05-12T04:34:14;75146.25;;;-143.60;50.99
68329;BME280;55182;56.864;60.554;2023-05-12T04:36:40;75140.22;;;-143.60;50.57
68329;BME280;55182;56.864;60.554;2023-05-12T04:39:06;75130.19;;;-143.60;49.67
68329;BME280;55182;56.864;60.554;2023-05-12T04:41:31;75114.09;;;-143.60;49.85
68329;BME280;55182;56.864;60.554;2023-05-12T04:43:57;75098.03;;;-143.60;49.03
68329;BME280;55182;56.864;60.554;2023-05-12T04:46:23;75083.97;;;-143.60;48.45
68329;BME280;55182;56.864;60.554;2023-05-12T04:48:48;75065.88;;;-143.60;47.91
68329;BME280;55182;56.864;60.554;2023-05-12T04:51:14;75057.84;;;-143.60;47.59
68329;BME280;55182;56.864;60.554;2023-05-12T04:53:39;75059.88;;;-143.60;47.15
68329;BME280;55182;56.864;60.554;2023-05-12T04:56:05;75045.81;;;-143.60;47.31
68329;BME280;55182;56.864;60.554;2023-05-12T04:58:35;75035.75;;;-143.60;47.01
68329;BME280;55182;56.864;60.554;2023-05-12T05:01:02;75017.69;;;-143.60;47.33
68329;BME280;55182;56.864;60.554;2023-05-12T05:03:28;75005.63;;;-143.60;46.77
68329;BME280;55182;56.864;60.554;2023-05-12T05:05:54;74997.59;;;-143.60;46.90
68329;BME280;55182;56.864;60.554;2023-05-12T05:08:20;74987.53;;;-143.60;46.15
68329;BME280;55182;56.864;60.554;2023-05-12T05:10:45;74981.50;;;-143.60;45.92
68329;BME280;55182;56.864;60.554;2023-05-12T05:13:11;74979.50;;;-143.60;45.59
68329;BME280;55182;56.864;60.554;2023-05-12T05:15:37;74971.47;;;-143.60;45.55
68329;BME280;55182;56.864;60.554;2023-05-12T05:18:03;74965.44;;;-143.60;46.31
68329;BME280;55182;56.864;60.554;2023-05-12T05:20:28;74953.41;;;-143.60;45.79
68329;BME280;55182;56.864;60.554;2023-05-12T05:22:54;74949.38;;;-143.60;45.43
68329;BME280;55182;56.864;60.554;2023-05-12T05:25:20;74933.31;;;-143.60;45.86
68329;BME280;55182;56.864;60.554;2023-05-12T05:27:47;74925.28;;;-143.60;45.61
68329;BME280;55182;56.864;60.554;2023-05-12T05:30:12;74911.22;;;-143.60;45.34
68329;BME280;55182;56.864;60.554;2023-05-12T05:32:39;74915.22;;;-143.60;45.10
68329;BME280;55182;56.864;60.554;2023-05-12T05:35:05;74905.19;;;-143.60;44.78
68329;BME280;55182;56.864;60.554;2023-05-12T05:37:33;74903.16;;;-143.60;44.86
68329;BME280;55182;56.864;60.554;2023-05-12T05:39:59;74897.16;;;-143.60;44.46
68329;BME280;55182;56.864;60.554;2023-05-12T05:42:24;74881.06;;;-143.60;44.95
68329;BME280;55182;56.864;60.554;2023-05-12T05:44:50;74869.03;;;-143.60;44.96
68329;BME280;55182;56.864;60.554;2023-05-12T05:47:17;74850.94;;;-143.60;43.51
68329;BME280;55182;56.864;60.554;2023-05-12T05:49:43;74840.91;;;-143.60;43.25
68329;BME280;55182;56.864;60.554;2023-05-12T05:52:09;74824.81;;;-143.60;43.18
68329;BME280;55182;56.864;60.554;2023-05-12T05:54:35;74814.78;;;-143.60;42.24
68329;BME280;55182;56.864;60.554;2023-05-12T05:57:00;74808.75;;;-143.60;42.51
68329;BME280;55182;56.864;60.554;2023-05-12T05:59:26;74798.72;;;-143.60;41.91
68329;BME280;55182;56.864;60.554;2023-05-12T06:01:52;74792.69;;;-143.60;42.03
68329;BME280;55182;56.864;60.554;2023-05-12T06:04:17;74784.66;;;-143.60;41.62
68329;BME280;55182;56.864;60.554;2023-05-12T06:06:44;74770.59;;;-143.60;41.27
68329;BME280;55182;56.864;60.554;2023-05-12T06:09:10;74768.56;;;-143.60;40.98
68329;BME280;55182;56.864;60.554;2023-05-12T06:11:35;74760.53;;;-143.60;40.86
68329;BME280;55182;56.864;60.554;2023-05-12T06:14:01;74748.50;;;-143.60;41.49
68329;BME280;55182;56.864;60.554;2023-05-12T06:16:26;74738.44;;;-143.60;40.76
68329;BME280;55182;56.864;60.554;2023-05-12T06:18:51;74728.41;;;-143.60;40.49
68329;BME280;55182;56.864;60.554;2023-05-12T06:21:17;74724.38;;;-143.60;40.38
68329;BME280;55182;56.864;60.554;2023-05-12T06:23:42;74728.41;;;-143.60;40.37
68329;BME280;55182;56.864;60.554;2023-05-12T06:26:08;74718.34;;;-143.60;40.33
68329;BME280;55182;56.864;60.554;2023-05-12T06:28:33;74706.31;;;-143.60;39.90
68329;BME280;55182;56.864;60.554;2023-05-12T06:30:59;74700.28;;;-143.60;40.70
68329;BME280;55182;56.864;60.554;2023-05-12T06:33:24;74672.16;;;-143.60;40.64
68329;BME280;55182;56.864;60.554;2023-05-12T06:35:50;74664.13;;;-143.60;40.54
68329;BME280;55182;56.864;60.554;2023-05-12T06:38:15;74644.03;;;-143.60;39.60
68329;BME280;55182;56.864;60.554;2023-05-12T06:40:43;74644.03;;;-143.60;39.53
68329;BME280;55182;56.864;60.554;2023-05-12T06:43:08;74634.00;;;-143.60;40.00
68329;BME280;55182;56.864;60.554;2023-05-12T06:45:34;74619.94;;;-143.60;39.70
68329;BME280;55182;56.864;60.554;2023-05-12T06:47:59;74605.88;;;-143.60;39.67
68329;BME280;55182;56.864;60.554;2023-05-12T06:50:26;74597.84;;;-143.60;38.76
68329;BME280;55182;56.864;60.554;2023-05-12T06:52:51;74603.84;;;-143.60;39.41
68329;BME280;55182;56.864;60.554;2023-05-12T06:55:18;74595.81;;;-143.60;39.05
68329;BME280;55182;56.864;60.554;2023-05-12T06:57:43;74589.81;;;-143.60;39.19
68329;BME280;55182;56.864;60.554;2023-05-12T07:00:09;74567.72;;;-143.60;39.36
68329;BME280;55182;56.864;60.554;2023-05-12T07:02:34;74545.59;;;-143.60;39.04
68329;BME280;55182;56.864;60.554;2023-05-12T07:05:00;74547.63;;;-143.60;38.81
68329;BME280;55182;56.864;60.554;2023-05-12T07:07:25;74525.53;;;-143.60;38.96
68329;BME280;55182;56.864;60.554;2023-05-12T07:09:51;74519.50;;;-143.60;38.56
68329;BME280;55182;56.864;60.554;2023-05-12T07:12:16;74503.44;;;-143.60;38.41
68329;BME280;55182;56.864;60.554;2023-05-12T07:15:01;74491.38;;;-143.60;38.77
68329;BME280;55182;56.864;60.554;2023-05-12T07:17:27;74487.34;;;-143.60;38.57
68329;BME280;55182;56.864;60.554;2023-05-12T07:19:52;74489.38;;;-143.60;38.68
68329;BME280;55182;56.864;60.554;2023-05-12T07:22:17;74495.41;;;-143.60;38.68
68329;BME280;55182;56.864;60.554;2023-05-12T07:24:43;74489.38;;;-143.60;39.01
68329;BME280;55182;56.864;60.554;2023-05-12T07:27:08;74477.31;;;-143.60;38.59
68329;BME280;55182;56.864;60.554;2023-05-12T07:29:34;74473.28;;;-143.60;38.60
68329;BME280;55182;56.864;60.554;2023-05-12T07:31:59;74467.28;;;-143.60;38.54
68329;BME280;55182;56.864;60.554;2023-05-12T07:34:25;74461.25;;;-143.60;38.98
68329;BME280;55182;56.864;60.554;2023-05-12T07:36:50;74435.13;;;-143.60;38.07
68329;BME280;55182;56.864;60.554;2023-05-12T07:39:16;74415.03;;;-143.60;38.51
68329;BME280;55182;56.864;60.554;2023-05-12T07:41:41;74394.97;;;-143.60;37.78
68329;BME280;55182;56.864;60.554;2023-05-12T07:44:06;74384.91;;;-143.60;36.88
68329;BME280;55182;56.864;60.554;2023-05-12T07:46:32;74366.84;;;-143.60;36.61
68329;BME280;55182;56.864;60.554;2023-05-12T07:48:57;74370.84;;;-143.60;36.59
68329;BME280;55182;56.864;60.554;2023-05-12T07:51:23;74364.84;;;-143.60;36.78
68329;BME280;55182;56.864;60.554;2023-05-12T07:53:48;74362.81;;;-143.60;36.43
68329;BME280;55182;56.864;60.554;2023-05-12T07:56:13;74358.81;;;-143.60;36.73
68329;BME280;55182;56.864;60.554;2023-05-12T07:58:39;74344.75;;;-143.60;36.62
68329;BME280;55182;56.864;60.554;2023-05-12T08:01:04;74322.66;;;-143.60;35.97
68329;BME280;55182;56.864;60.554;2023-05-12T08:03:30;74314.63;;;-143.60;35.76
68329;BME280;55182;56.864;60.554;2023-05-12T08:05:56;74308.59;;;-143.60;36.21
68329;BME280;55182;56.864;60.554;2023-05-12T08:08:21;74290.50;;;-143.60;35.58
68329;BME280;55182;56.864;60.554;2023-05-12T08:10:47;74268.41;;;-143.60;34.83
68329;BME280;55182;56.864;60.554;2023-05-12T08:13:12;74252.34;;;-143.60;35.45
68329;BME280;55182;56.864;60.554;2023-05-12T08:15:37;74232.28;;;-143.60;35.01
68329;BME280;55182;56.864;60.554;2023-05-12T08:18:03;74224.22;;;-143.60;35.31
68329;BME280;55182;56.864;60.554;2023-05-12T08:20:28;74206.16;;;-143.60;35.66
68329;BME280;55182;56.864;60.554;2023-05-12T08:22:54;74192.09;;;-143.60;34.52
68329;BME280;55182;56.864;60.554;2023-05-12T08:25:19;74182.06;;;-143.60;34.36
68329;BME280;55182;56.864;60.554;2023-05-12T08:27:45;74190.09;;;-143.60;34.08
68329;BME280;55182;56.864;60.554;2023-05-12T08:30:10;74178.03;;;-143.60;34.54
68329;BME280;55182;56.864;60.554;2023-05-12T08:32:36;74174.03;;;-143.60;34.18
68329;BME280;55182;56.864;60.554;2023-05-12T08:35:01;74163.97;;;-143.60;34.28
68329;BME280;55182;56.864;60.554;2023-05-12T08:37:27;74161.97;;;-143.60;33.64
68329;BME280;55182;56.864;60.554;2023-05-12T08:39:52;74157.94;;;-143.60;33.65
68329;BME280;55182;56.864;60.554;2023-05-12T08:44:49;74157.94;;;-143.60;34.08
68329;BME280;55182;56.864;60.554;2023-05-12T08:47:16;74153.94;;;-143.60;34.15
68329;BME280;55182;56.864;60.554;2023-05-12T08:49:42;74137.88;;;-143.60;34.83
68329;BME280;55182;56.864;60.554;2023-05-12T08:52:08;74125.81;;;-143.60;33.73
68329;BME280;55182;56.864;60.554;2023-05-12T08:54:34;74129.84;;;-143.60;33.43
68329;BME280;55182;56.864;60.554;2023-05-12T08:57:00;74107.75;;;-143.60;33.58
68329;BME280;55182;56.864;60.554;2023-05-12T08:59:25;74083.63;;;-143.60;33.57
68329;BME280;55182;56.864;60.554;2023-05-12T09:01:51;74077.63;;;-143.60;33.02
68329;BME280;55182;56.864;60.554;2023-05-12T09:04:17;74065.56;;;-143.60;33.13
68329;BME280;55182;56.864;60.554;2023-05-12T09:06:43;74045.47;;;-143.60;33.03
68329;BME280;55182;56.864;60.554;2023-05-12T09:09:08;74035.44;;;-143.60;32.48
68329;BME280;55182;56.864;60.554;2023-05-12T09:11:34;74035.44;;;-143.60;32.56
68329;BME280;55182;56.864;60.554;2023-05-12T09:14:01;74047.50;;;-143.60;32.76
68329;BME280;55182;56.864;60.554;2023-05-12T09:16:30;74049.50;;;-143.60;32.64
68329;BME280;55182;56.864;60.554;2023-05-12T09:18:56;74037.44;;;-143.60;32.70
68329;BME280;55182;56.864;60.554;2023-05-12T09:21:23;74037.44;;;-143.60;32.32
68329;BME280;55182;56.864;60.554;2023-05-12T09:23:53;74031.41;;;-143.60;32.13
68329;BME280;55182;56.864;60.554;2023-05-12T09:26:19;74067.56;;;-143.60;32.40
68329;BME280;55182;56.864;60.554;2023-05-12T09:28:44;74117.78;;;-143.60;32.86
68329;BME280;55182;56.864;60.554;2023-05-12T09:31:16;74141.88;;;-143.60;33.13
68329;BME280;55182;56.864;60.554;2023-05-12T09:33:42;74147.91;;;-143.60;33.03
68329;BME280;55182;56.864;60.554;2023-05-12T09:36:08;74145.91;;;-143.60;33.24
68329;BME280;55182;56.864;60.554;2023-05-12T09:38:33;74133.84;;;-143.60;33.08
68329;BME280;55182;56.864;60.554;2023-05-12T09:40:59;74089.66;;;-143.60;32.76
68329;BME280;55182;56.864;60.554;2023-05-12T09:43:24;74041.47;;;-143.60;32.17
68329;BME280;55182;56.864;60.554;2023-05-12T09:45:50;74021.38;;;-143.60;31.80
68329;BME280;55182;56.864;60.554;2023-05-12T09:48:15;74005.31;;;-143.60;31.80
68329;BME280;55182;56.864;60.554;2023-05-12T09:50:41;74013.34;;;-143.60;31.60
68329;BME280;55182;56.864;60.554;2023-05-12T09:53:07;74051.50;;;-143.60;31.73
68329;BME280;55182;56.864;60.554;2023-05-12T09:55:32;74075.59;;;-143.60;32.19
68329;BME280;55182;56.864;60.554;2023-05-12T09:57:58;74105.72;;;-143.60;32.26
68329;BME280;55182;56.864;60.554;2023-05-12T10:00:24;74105.72;;;-143.60;32.29
68329;BME280;55182;56.864;60.554;2023-05-12T10:02:50;74109.75;;;-143.60;32.64
68329;BME280;55182;56.864;60.554;2023-05-12T10:05:17;74101.72;;;-143.60;32.55
68329;BME280;55182;56.864;60.554;2023-05-12T10:07:44;74093.69;;;-143.60;32.57
68329;BME280;55182;56.864;60.554;2023-05-12T10:10:13;74093.69;;;-143.60;32.40
68329;BME280;55182;56.864;60.554;2023-05-12T10:12:40;74089.66;;;-143.60;32.48
68329;BME280;55182;56.864;60.554;2023-05-12T10:15:06;74085.66;;;-143.60;32.36
68329;BME280;55182;56.864;60.554;2023-05-12T10:17:32;74075.59;;;-143.60;32.18
68329;BME280;55182;56.864;60.554;2023-05-12T10:19:59;74067.56;;;-143.60;31.99
68329;BME280;55182;56.864;60.554;2023-05-12T10:22:25;74045.47;;;-143.60;31.98
68329;BME280;55182;56.864;60.554;2023-05-12T10:24:52;74027.41;;;-143.60;32.21
68329;BME280;55182;56.864;60.554;2023-05-12T10:27:18;74033.44;;;-143.60;31.96
68329;BME280;55182;56.864;60.554;2023-05-12T10:29:45;74035.44;;;-143.60;32.01
68329;BME280;55182;56.864;60.554;2023-05-12T10:32:11;74013.34;;;-143.60;32.64
68329;BME280;55182;56.864;60.554;2023-05-12T10:34:38;73983.22;;;-143.60;32.04
68329;BME280;55182;56.864;60.554;2023-05-12T10:37:05;73971.16;;;-143.60;32.08
68329;BME280;55182;56.864;60.554;2023-05-12T10:39:30;73953.09;;;-143.60;31.86
68329;BME280;55182;56.864;60.554;2023-05-12T10:42:05;73939.03;;;-143.60;31.62
68329;BME280;55182;56.864;60.554;2023-05-12T10:44:31;73933.00;;;-143.60;31.36
68329;BME280;55182;56.864;60.554;2023-05-12T10:46:57;73933.00;;;-143.60;31.25
68329;BME280;55182;56.864;60.554;2023-05-12T10:49:30;73916.94;;;-143.60;30.99
68329;BME280;55182;56.864;60.554;2023-05-12T10:51:58;73904.88;;;-143.60;30.87
68329;BME280;55182;56.864;60.554;2023-05-12T10:54:24;73888.81;;;-143.60;31.03
68329;BME280;55182;56.864;60.554;2023-05-12T10:56:50;73868.75;;;-143.60;31.15
68329;BME280;55182;56.864;60.554;2023-05-12T10:59:17;73842.63;;;-143.60;30.81
68329;BME280;55182;56.864;60.554;2023-05-12T11:02:04;73822.56;;;-143.60;30.76
68329;BME280;55182;56.864;60.554;2023-05-12T11:04:38;73788.41;;;-143.60;30.75
68329;BME280;55182;56.864;60.554;2023-05-12T11:07:04;73788.41;;;-143.60;30.04
68329;BME280;55182;56.864;60.554;2023-05-12T11:09:30;73784.38;;;-143.60;30.03
68329;BME280;55182;56.864;60.554;2023-05-12T11:11:58;73768.31;;;-143.60;30.07
68329;BME280;55182;56.864;60.554;2023-05-12T11:14:24;73768.31;;;-143.60;30.33
68329;BME280;55182;56.864;60.554;2023-05-12T11:16:49;73790.41;;;-143.60;30.20
68329;BME280;55182;56.864;60.554;2023-05-12T11:19:17;73766.31;;;-143.60;30.99
68329;BME280;55182;56.864;60.554;2023-05-12T11:21:42;73752.25;;;-143.60;30.32
68329;BME280;55182;56.864;60.554;2023-05-12T11:24:08;73740.22;;;-143.60;30.06
68329;BME280;55182;56.864;60.554;2023-05-12T11:26:33;73744.22;;;-143.60;29.82
68329;BME280;55182;56.864;60.554;2023-05-12T11:28:59;73746.22;;;-143.60;29.96
68329;BME280;55182;56.864;60.554;2023-05-12T11:31:24;73752.25;;;-143.60;30.26
68329;BME280;55182;56.864;60.554;2023-05-12T11:33:49;73752.25;;;-143.60;30.45
68329;BME280;55182;56.864;60.554;2023-05-12T11:36:15;73748.25;;;-143.60;30.15
68329;BME280;55182;56.864;60.554;2023-05-12T11:38:47;73728.16;;;-143.60;30.07
68329;BME280;55182;56.864;60.554;2023-05-12T11:41:12;73671.94;;;-143.60;29.62
68329;BME280;55182;56.864;60.554;2023-05-12T11:43:38;73627.75;;;-143.60;29.10
68329;BME280;55182;56.864;60.554;2023-05-12T11:46:03;73623.72;;;-143.60;29.13
68329;BME280;55182;56.864;60.554;2023-05-12T11:48:32;73671.94;;;-143.60;29.22
68329;BME280;55182;56.864;60.554;2023-05-12T11:50:58;73730.16;;;-143.60;29.77
68329;BME280;55182;56.864;60.554;2023-05-12T11:53:24;73760.28;;;-143.60;30.08
68329;BME280;55182;56.864;60.554;2023-05-12T11:55:49;73776.34;;;-143.60;30.10
68329;BME280;55182;56.864;60.554;2023-05-12T11:58:19;73794.44;;;-143.60;30.50
68329;BME280;55182;56.864;60.554;2023-05-12T12:00:45;73826.56;;;-143.60;30.70
68329;BME280;55182;56.864;60.554;2023-05-12T12:03:11;73866.72;;;-143.60;30.95
68329;BME280;55182;56.864;60.554;2023-05-12T12:05:37;73900.88;;;-143.60;31.00
68329;BME280;55182;56.864;60.554;2023-05-12T12:08:12;73937.03;;;-143.60;31.28
68329;BME280;55182;56.864;60.554;2023-05-12T12:10:38;73953.09;;;-143.60;31.45
68329;BME280;55182;56.864;60.554;2023-05-12T12:13:07;73971.16;;;-143.60;31.60
68329;BME280;55182;56.864;60.554;2023-05-12T12:15:32;73977.19;;;-143.60;31.36
68329;BME280;55182;56.864;60.554;2023-05-12T12:17:58;73977.19;;;-143.60;31.48
68329;BME280;55182;56.864;60.554;2023-05-12T12:20:23;73977.19;;;-143.60;31.68
68329;BME280;55182;56.864;60.554;2023-05-12T12:22:50;73973.19;;;-143.60;31.42
68329;BME280;55182;56.864;60.554;2023-05-12T12:25:16;73967.16;;;-143.60;31.52
68329;BME280;55182;56.864;60.554;2023-05-12T12:27:41;73949.06;;;-143.60;31.81